sensor_id;sensor_type;location;lat;lon;timestamp;pressure;altitude;pressure_sealevel;temperature;humidity
54554;BME280;40450;55.848;-3.572;2023-12-07T00:02:12;98877.22;;;6.75;40.07
54554;BME280;40450;55.848;-3.572;2023-12-07T00:04:45;98874.42;;;5.75;40.52
54554;BME280;40450;55.848;-3.572;2023-12-07T00:07:07;98876.32;;;5.67;41.15
54554;BME280;40450;55.848;-3.572;2023-12-07T00:09:32;98878.06;;;6.74;41.72
54554;BME280;40450;55.848;-3.572;2023-12-07T00:11:57;98870.12;;;6.25;40.96
54554;BME280;40450;55.848;-3.572;2023-12-07T00:14:18;98869.17;;;6.55;41.14
54554;BME280;40450;55.848;-3.572;2023-12-07T00:16:44;98864.99;;;7.15;41.26
54554;BME280;40450;55.848;-3.572;2023-12-07T00:19:09;98868.98;;;7.91;40.72
54554;BME280;40450;55.848;-3.572;2023-12-07T00:21:35;98863.48;;;7.77;40.05
54554;BME280;40450;55.848;-3.572;2023-12-07T00:24:00;98862.38;;;7.86;39.94
54554;BME280;40450;55.848;-3.572;2023-12-07T00:26:25;98857.83;;;7.83;39.12
54554;BME280;40450;55.848;-3.572;2023-12-07T00:28:51;98859.06;;;7.69;39.46
54554;BME280;40450;55.848;-3.572;2023-12-07T00:31:16;98854.12;;;7.45;39.36
54554;BME280;40450;55.848;-3.572;2023-12-07T00:33:41;98852.34;;;7.77;39.42
54554;BME280;40450;55.848;-3.572;2023-12-07T00:36:08;98852.36;;;7.75;39.01
54554;BME280;40450;55.848;-3.572;2023-12-07T00:38:32;98846.55;;;7.82;39.05
54554;BME280;40450;55.848;-3.572;2023-12-07T00:40:57;98840.38;;;7.29;39.09
54554;BME280;40450;55.848;-3.572;2023-12-07T00:43:22;98835.51;;;7.93;39.16
54554;BME280;40450;55.848;-3.572;2023-12-07T00:45:47;98834.44;;;7.67;39.02
54554;BME280;40450;55.848;-3.572;2023-12-07T00:48:13;98835.23;;;7.24;39.08
54554;BME280;40450;55.848;-3.572;2023-12-07T00:50:39;98830.95;;;7.88;39.41
54554;BME280;40450;55.848;-3.572;2023-12-07T00:53:04;98829.57;;;8.34;39.53
54554;BME280;40450;55.848;-3.572;2023-12-07T00:55:30;98830.68;;;8.66;39.09
54554;BME280;40450;55.848;-3.572;2023-12-07T00:57:55;98829.98;;;8.51;38.75
54554;BME280;40450;55.848;-3.572;2023-12-07T01:00:20;98831.69;;;8.03;38.30
54554;BME280;40450;55.848;-3.572;2023-12-07T01:02:46;98827.21;;;8.37;38.59
54554;BME280;40450;55.848;-3.572;2023-12-07T01:05:11;98829.08;;;8.57;38.83
54554;BME280;40450;55.848;-3.572;2023-12-07T01:07:44;98830.55;;;8.33;38.63
54554;BME280;40450;55.848;-3.572;2023-12-07T01:10:08;98832.49;;;8.40;39.15
54554;BME280;40450;55.848;-3.572;2023-12-07T01:12:32;98828.33;;;8.40;39.14
54554;BME280;40450;55.848;-3.572;2023-12-07T01:15:07;98818.68;;;7.43;38.93
54554;BME280;40450;55.848;-3.572;2023-12-07T01:17:22;98813.43;;;7.31;39.12
54554;BME280;40450;55.848;-3.572;2023-12-07T01:19:51;98812.78;;;7.62;39.84
54554;BME280;40450;55.848;-3.572;2023-12-07T01:22:08;98808.93;;;7.71;39.92
54554;BME280;40450;55.848;-3.572;2023-12-07T01:24:39;98814.89;;;7.07;39.94
54554;BME280;40450;55.848;-3.572;2023-12-07T01:27:04;98805.50;;;7.43;40.73
54554;BME280;40450;55.848;-3.572;2023-12-07T01:29:33;98801.60;;;7.82;40.31
54554;BME280;40450;55.848;-3.572;2023-12-07T01:32:05;98801.09;;;7.17;40.10
54554;BME280;40450;55.848;-3.572;2023-12-07T01:34:17;98797.12;;;7.62;40.13
54554;BME280;40450;55.848;-3.572;2023-12-07T01:36:46;98793.79;;;7.47;40.30
54554;BME280;40450;55.848;-3.572;2023-12-07T01:39:11;98783.56;;;7.55;39.97
54554;BME280;40450;55.848;-3.572;2023-12-07T01:41:39;98791.75;;;6.51;40.55
54554;BME280;40450;55.848;-3.572;2023-12-07T01:44:04;98776.44;;;7.13;40.80
54554;BME280;40450;55.848;-3.572;2023-12-07T01:46:27;98785.42;;;7.02;41.02
54554;BME280;40450;55.848;-3.572;2023-12-07T01:48:53;98781.70;;;7.53;41.34
54554;BME280;40450;55.848;-3.572;2023-12-07T01:51:21;98778.74;;;7.28;41.33
54554;BME280;40450;55.848;-3.572;2023-12-07T01:53:43;98772.81;;;7.47;41.08
54554;BME280;40450;55.848;-3.572;2023-12-07T01:56:11;98771.09;;;7.26;41.03
54554;BME280;40450;55.848;-3.572;2023-12-07T02:01:01;98763.59;;;7.03;41.20
54554;BME280;40450;55.848;-3.572;2023-12-07T02:03:28;98759.31;;;7.46;41.34
54554;BME280;40450;55.848;-3.572;2023-12-07T02:05:55;98760.21;;;7.20;41.34
54554;BME280;40450;55.848;-3.572;2023-12-07T02:08:16;98754.49;;;7.60;41.47
54554;BME280;40450;55.848;-3.572;2023-12-07T02:10:42;98747.23;;;7.14;40.90
54554;BME280;40450;55.848;-3.572;2023-12-07T02:15:42;98750.78;;;7.45;40.94
54554;BME280;40450;55.848;-3.572;2023-12-07T02:18:00;98748.10;;;7.21;41.22
54554;BME280;40450;55.848;-3.572;2023-12-07T02:20:29;98734.62;;;7.46;41.10
54554;BME280;40450;55.848;-3.572;2023-12-07T02:22:55;98738.70;;;7.47;41.05
54554;BME280;40450;55.848;-3.572;2023-12-07T02:25:18;98732.26;;;7.08;41.05
54554;BME280;40450;55.848;-3.572;2023-12-07T02:30:08;98729.43;;;6.80;41.23
54554;BME280;40450;55.848;-3.572;2023-12-07T02:32:27;98727.00;;;7.52;41.92
54554;BME280;40450;55.848;-3.572;2023-12-07T02:34:58;98730.97;;;7.26;41.77
54554;BME280;40450;55.848;-3.572;2023-12-07T02:37:19;98725.29;;;7.36;41.79
54554;BME280;40450;55.848;-3.572;2023-12-07T02:39:49;98716.78;;;7.36;41.43
54554;BME280;40450;55.848;-3.572;2023-12-07T02:42:10;98712.85;;;7.17;41.64
54554;BME280;40450;55.848;-3.572;2023-12-07T02:44:34;98704.38;;;7.52;41.84
54554;BME280;40450;55.848;-3.572;2023-12-07T02:47:00;98698.33;;;7.24;42.10
54554;BME280;40450;55.848;-3.572;2023-12-07T02:49:25;98694.80;;;7.53;42.11
54554;BME280;40450;55.848;-3.572;2023-12-07T02:51:52;98693.36;;;7.22;41.86
54554;BME280;40450;55.848;-3.572;2023-12-07T02:54:16;98695.87;;;7.59;41.70
54554;BME280;40450;55.848;-3.572;2023-12-07T02:56:42;98695.72;;;7.24;41.83
54554;BME280;40450;55.848;-3.572;2023-12-07T02:59:13;98676.71;;;7.40;41.85
54554;BME280;40450;55.848;-3.572;2023-12-07T03:01:33;98676.61;;;6.86;41.74
54554;BME280;40450;55.848;-3.572;2023-12-07T03:03:58;98676.16;;;6.62;42.35
54554;BME280;40450;55.848;-3.572;2023-12-07T03:06:23;98666.12;;;7.17;42.51
54554;BME280;40450;55.848;-3.572;2023-12-07T03:08:49;98662.80;;;6.87;42.70
54554;BME280;40450;55.848;-3.572;2023-12-07T03:11:19;98654.14;;;7.19;42.61
54554;BME280;40450;55.848;-3.572;2023-12-07T03:13:45;98650.04;;;7.54;42.73
54554;BME280;40450;55.848;-3.572;2023-12-07T03:16:08;98650.06;;;7.45;42.79
54554;BME280;40450;55.848;-3.572;2023-12-07T03:18:36;98648.02;;;7.92;42.80
54554;BME280;40450;55.848;-3.572;2023-12-07T03:20:55;98642.01;;;7.40;41.95
54554;BME280;40450;55.848;-3.572;2023-12-07T03:23:26;98636.63;;;7.49;42.02
54554;BME280;40450;55.848;-3.572;2023-12-07T03:25:51;98632.71;;;7.45;42.03
54554;BME280;40450;55.848;-3.572;2023-12-07T03:28:11;98625.95;;;7.23;42.10
54554;BME280;40450;55.848;-3.572;2023-12-07T03:30:36;98621.07;;;7.09;42.22
54554;BME280;40450;55.848;-3.572;2023-12-07T03:33:02;98617.09;;;7.04;42.35
54554;BME280;40450;55.848;-3.572;2023-12-07T03:35:27;98602.93;;;7.45;42.47
54554;BME280;40450;55.848;-3.572;2023-12-07T03:37:53;98596.70;;;7.56;42.25
54554;BME280;40450;55.848;-3.572;2023-12-07T03:40:23;98591.24;;;6.61;42.35
54554;BME280;40450;55.848;-3.572;2023-12-07T03:42:43;98584.87;;;6.59;42.80
54554;BME280;40450;55.848;-3.572;2023-12-07T03:45:09;98573.70;;;6.42;43.20
54554;BME280;40450;55.848;-3.572;2023-12-07T03:47:40;98564.73;;;6.90;43.58
54554;BME280;40450;55.848;-3.572;2023-12-07T03:50:00;98559.53;;;7.29;43.55
54554;BME280;40450;55.848;-3.572;2023-12-07T03:52:25;98563.24;;;6.99;43.26
54554;BME280;40450;55.848;-3.572;2023-12-07T03:54:50;98567.17;;;7.10;43.62
54554;BME280;40450;55.848;-3.572;2023-12-07T03:57:22;98572.82;;;6.51;42.97
54554;BME280;40450;55.848;-3.572;2023-12-07T03:59:47;98561.74;;;6.11;43.29
54554;BME280;40450;55.848;-3.572;2023-12-07T04:02:13;98559.46;;;5.93;43.94
54554;BME280;40450;55.848;-3.572;2023-12-07T04:04:40;98563.95;;;6.64;43.98
54554;BME280;40450;55.848;-3.572;2023-12-07T04:06:59;98560.57;;;6.83;43.94
54554;BME280;40450;55.848;-3.572;2023-12-07T04:09:24;98557.39;;;6.87;43.74
54554;BME280;40450;55.848;-3.572;2023-12-07T04:11:49;98563.00;;;6.38;43.58
54554;BME280;40450;55.848;-3.572;2023-12-07T04:14:19;98561.87;;;6.87;43.64
54554;BME280;40450;55.848;-3.572;2023-12-07T04:16:39;98554.78;;;6.79;43.59
54554;BME280;40450;55.848;-3.572;2023-12-07T04:19:10;98553.11;;;6.51;44.29
54554;BME280;40450;55.848;-3.572;2023-12-07T04:21:35;98551.86;;;6.50;44.34
54554;BME280;40450;55.848;-3.572;2023-12-07T04:23:55;98551.86;;;6.54;43.79
54554;BME280;40450;55.848;-3.572;2023-12-07T04:26:20;98548.92;;;6.84;44.00
54554;BME280;40450;55.848;-3.572;2023-12-07T04:28:46;98539.68;;;6.95;44.29
54554;BME280;40450;55.848;-3.572;2023-12-07T04:31:16;98537.43;;;7.22;44.02
54554;BME280;40450;55.848;-3.572;2023-12-07T04:33:45;98537.57;;;7.41;43.47
54554;BME280;40450;55.848;-3.572;2023-12-07T04:36:09;98548.88;;;6.86;43.67
54554;BME280;40450;55.848;-3.572;2023-12-07T04:38:39;98542.60;;;7.25;43.13
54554;BME280;40450;55.848;-3.572;2023-12-07T04:40:59;98534.87;;;6.86;42.87
54554;BME280;40450;55.848;-3.572;2023-12-07T04:43:20;98531.15;;;7.21;43.53
54554;BME280;40450;55.848;-3.572;2023-12-07T04:45:50;98527.71;;;7.36;43.05
54554;BME280;40450;55.848;-3.572;2023-12-07T04:48:16;98523.54;;;7.16;43.09
54554;BME280;40450;55.848;-3.572;2023-12-07T04:50:42;98520.05;;;7.07;43.26
54554;BME280;40450;55.848;-3.572;2023-12-07T04:53:03;98509.59;;;7.44;42.67
54554;BME280;40450;55.848;-3.572;2023-12-07T04:55:28;98506.69;;;7.56;42.77
54554;BME280;40450;55.848;-3.572;2023-12-07T04:57:54;98500.15;;;7.40;42.41
54554;BME280;40450;55.848;-3.572;2023-12-07T05:00:25;98497.86;;;7.71;42.50
54554;BME280;40450;55.848;-3.572;2023-12-07T05:02:51;98501.47;;;7.85;41.89
54554;BME280;40450;55.848;-3.572;2023-12-07T05:05:24;98500.29;;;7.37;42.55
54554;BME280;40450;55.848;-3.572;2023-12-07T05:07:41;98501.89;;;7.52;42.51
54554;BME280;40450;55.848;-3.572;2023-12-07T05:10:08;98494.42;;;7.56;42.30
54554;BME280;40450;55.848;-3.572;2023-12-07T05:12:32;98490.04;;;7.45;42.57
54554;BME280;40450;55.848;-3.572;2023-12-07T05:14:58;98484.18;;;7.01;42.36
54554;BME280;40450;55.848;-3.572;2023-12-07T05:17:23;98488.96;;;7.32;42.46
54554;BME280;40450;55.848;-3.572;2023-12-07T05:19:44;98481.96;;;7.18;42.70
54554;BME280;40450;55.848;-3.572;2023-12-07T05:22:14;98480.82;;;7.49;42.64
54554;BME280;40450;55.848;-3.572;2023-12-07T05:24:35;98478.07;;;7.51;42.85
54554;BME280;40450;55.848;-3.572;2023-12-07T05:27:08;98479.41;;;7.08;42.73
54554;BME280;40450;55.848;-3.572;2023-12-07T05:29:26;98479.57;;;7.70;43.23
54554;BME280;40450;55.848;-3.572;2023-12-07T05:32:06;98467.56;;;7.62;42.21
54554;BME280;40450;55.848;-3.572;2023-12-07T05:34:16;98466.65;;;8.08;42.50
54554;BME280;40450;55.848;-3.572;2023-12-07T05:36:46;98470.14;;;8.24;41.67
54554;BME280;40450;55.848;-3.572;2023-12-07T05:39:15;98467.59;;;7.97;41.63
54554;BME280;40450;55.848;-3.572;2023-12-07T05:41:41;98463.17;;;8.29;41.72
54554;BME280;40450;55.848;-3.572;2023-12-07T05:44:04;98463.15;;;7.80;41.95
54554;BME280;40450;55.848;-3.572;2023-12-07T05:46:29;98462.93;;;8.19;41.78
54554;BME280;40450;55.848;-3.572;2023-12-07T05:48:57;98454.67;;;6.79;41.66
54554;BME280;40450;55.848;-3.572;2023-12-07T05:51:24;98454.23;;;7.98;42.28
54554;BME280;40450;55.848;-3.572;2023-12-07T05:53:40;98447.73;;;7.23;41.59
54554;BME280;40450;55.848;-3.572;2023-12-07T05:56:05;98446.05;;;7.42;42.09
54554;BME280;40450;55.848;-3.572;2023-12-07T05:58:30;98451.34;;;7.18;42.23
54554;BME280;40450;55.848;-3.572;2023-12-07T06:00:55;98446.46;;;8.16;42.79
54554;BME280;40450;55.848;-3.572;2023-12-07T06:03:20;98436.61;;;7.75;42.39
54554;BME280;40450;55.848;-3.572;2023-12-07T06:05:46;98425.08;;;7.46;41.86
54554;BME280;40450;55.848;-3.572;2023-12-07T06:08:11;98418.22;;;7.22;42.13
54554;BME280;40450;55.848;-3.572;2023-12-07T06:10:37;98422.33;;;6.08;43.22
54554;BME280;40450;55.848;-3.572;2023-12-07T06:13:02;98425.13;;;4.72;44.88
54554;BME280;40450;55.848;-3.572;2023-12-07T06:15:28;98426.46;;;5.63;44.84
54554;BME280;40450;55.848;-3.572;2023-12-07T06:17:54;98420.36;;;6.10;45.31
54554;BME280;40450;55.848;-3.572;2023-12-07T06:20:19;98412.41;;;4.91;45.47
54554;BME280;40450;55.848;-3.572;2023-12-07T06:22:44;98411.65;;;6.26;46.18
54554;BME280;40450;55.848;-3.572;2023-12-07T06:25:11;98396.27;;;6.98;44.86
54554;BME280;40450;55.848;-3.572;2023-12-07T06:27:35;98380.09;;;6.59;45.05
54554;BME280;40450;55.848;-3.572;2023-12-07T06:30:01;98387.25;;;7.04;45.07
54554;BME280;40450;55.848;-3.572;2023-12-07T06:32:27;98384.03;;;7.31;44.78
54554;BME280;40450;55.848;-3.572;2023-12-07T06:34:52;98390.84;;;7.97;44.24
54554;BME280;40450;55.848;-3.572;2023-12-07T06:37:17;98386.49;;;7.52;43.41
54554;BME280;40450;55.848;-3.572;2023-12-07T06:39:43;98380.49;;;7.38;43.87
54554;BME280;40450;55.848;-3.572;2023-12-07T06:42:09;98370.58;;;7.38;43.46
54554;BME280;40450;55.848;-3.572;2023-12-07T06:44:38;98365.61;;;7.45;43.33
54554;BME280;40450;55.848;-3.572;2023-12-07T06:46:58;98359.21;;;7.56;43.29
54554;BME280;40450;55.848;-3.572;2023-12-07T06:49:29;98352.29;;;7.59;42.97
54554;BME280;40450;55.848;-3.572;2023-12-07T06:51:50;98345.09;;;7.46;43.24
54554;BME280;40450;55.848;-3.572;2023-12-07T06:54:16;98343.39;;;7.25;43.22
54554;BME280;40450;55.848;-3.572;2023-12-07T06:56:41;98332.03;;;6.78;43.66
54554;BME280;40450;55.848;-3.572;2023-12-07T06:59:06;98323.11;;;7.01;43.66
54554;BME280;40450;55.848;-3.572;2023-12-07T07:01:31;98313.62;;;7.08;43.58
54554;BME280;40450;55.848;-3.572;2023-12-07T07:03:56;98314.88;;;6.86;43.91
54554;BME280;40450;55.848;-3.572;2023-12-07T07:06:22;98308.63;;;7.60;44.04
54554;BME280;40450;55.848;-3.572;2023-12-07T07:08:49;98306.80;;;7.94;43.77
54554;BME280;40450;55.848;-3.572;2023-12-07T07:11:13;98313.76;;;8.26;43.45
54554;BME280;40450;55.848;-3.572;2023-12-07T07:13:39;98311.07;;;7.10;42.92
54554;BME280;40450;55.848;-3.572;2023-12-07T07:16:06;98311.05;;;7.79;43.26
54554;BME280;40450;55.848;-3.572;2023-12-07T07:18:30;98309.70;;;7.69;42.85
54554;BME280;40450;55.848;-3.572;2023-12-07T07:20:55;98312.41;;;8.06;43.00
54554;BME280;40450;55.848;-3.572;2023-12-07T07:23:21;98305.29;;;7.71;42.53
54554;BME280;40450;55.848;-3.572;2023-12-07T07:25:46;98304.59;;;7.72;43.05
54554;BME280;40450;55.848;-3.572;2023-12-07T07:28:11;98303.03;;;7.53;42.57
54554;BME280;40450;55.848;-3.572;2023-12-07T07:31:19;98308.92;;;7.30;43.20
54554;BME280;40450;55.848;-3.572;2023-12-07T07:33:02;98311.30;;;7.42;42.82
54554;BME280;40450;55.848;-3.572;2023-12-07T07:35:28;98312.97;;;7.85;42.85
54554;BME280;40450;55.848;-3.572;2023-12-07T07:38:16;98312.46;;;7.45;42.79
54554;BME280;40450;55.848;-3.572;2023-12-07T07:40:24;98311.97;;;7.82;43.24
54554;BME280;40450;55.848;-3.572;2023-12-07T07:42:52;98315.21;;;8.24;42.81
54554;BME280;40450;55.848;-3.572;2023-12-07T07:45:10;98307.48;;;8.45;43.00
54554;BME280;40450;55.848;-3.572;2023-12-07T07:47:35;98308.34;;;8.37;42.84
54554;BME280;40450;55.848;-3.572;2023-12-07T07:50:00;98308.26;;;7.94;42.24
54554;BME280;40450;55.848;-3.572;2023-12-07T07:52:25;98303.56;;;8.01;42.40
54554;BME280;40450;55.848;-3.572;2023-12-07T07:54:51;98300.47;;;7.87;42.86
54554;BME280;40450;55.848;-3.572;2023-12-07T07:57:16;98296.69;;;8.14;42.95
54554;BME280;40450;55.848;-3.572;2023-12-07T07:59:41;98286.70;;;8.41;42.48
54554;BME280;40450;55.848;-3.572;2023-12-07T08:02:07;98276.22;;;8.23;42.60
54554;BME280;40450;55.848;-3.572;2023-12-07T08:04:33;98274.88;;;8.70;42.83
54554;BME280;40450;55.848;-3.572;2023-12-07T08:06:58;98268.43;;;8.95;42.21
54554;BME280;40450;55.848;-3.572;2023-12-07T08:09:23;98268.27;;;8.40;42.03
54554;BME280;40450;55.848;-3.572;2023-12-07T08:11:49;98267.03;;;8.31;41.82
54554;BME280;40450;55.848;-3.572;2023-12-07T08:14:14;98270.01;;;8.11;42.18
54554;BME280;40450;55.848;-3.572;2023-12-07T08:16:43;98272.34;;;7.88;42.03
54554;BME280;40450;55.848;-3.572;2023-12-07T08:19:06;98268.94;;;7.78;42.75
54554;BME280;40450;55.848;-3.572;2023-12-07T08:21:31;98267.33;;;7.98;42.61
54554;BME280;40450;55.848;-3.572;2023-12-07T08:23:57;98264.55;;;7.81;42.61
54554;BME280;40450;55.848;-3.572;2023-12-07T08:26:22;98251.83;;;7.84;42.63
54554;BME280;40450;55.848;-3.572;2023-12-07T08:28:47;98248.63;;;7.83;43.07
54554;BME280;40450;55.848;-3.572;2023-12-07T08:31:12;98246.07;;;8.17;42.82
54554;BME280;40450;55.848;-3.572;2023-12-07T08:33:38;98243.94;;;7.97;42.82
54554;BME280;40450;55.848;-3.572;2023-12-07T08:36:04;98243.59;;;7.24;43.17
54554;BME280;40450;55.848;-3.572;2023-12-07T08:38:29;98240.76;;;7.66;43.71
54554;BME280;40450;55.848;-3.572;2023-12-07T08:40:54;98235.89;;;7.55;43.79
54554;BME280;40450;55.848;-3.572;2023-12-07T08:43:27;98226.48;;;7.36;43.97
54554;BME280;40450;55.848;-3.572;2023-12-07T08:45:45;98227.04;;;7.30;44.02
54554;BME280;40450;55.848;-3.572;2023-12-07T08:48:10;98225.65;;;7.18;44.51
54554;BME280;40450;55.848;-3.572;2023-12-07T08:50:36;98221.74;;;6.34;44.87
54554;BME280;40450;55.848;-3.572;2023-12-07T08:53:08;98222.88;;;7.33;44.92
54554;BME280;40450;55.848;-3.572;2023-12-07T08:55:27;98218.99;;;7.65;44.88
54554;BME280;40450;55.848;-3.572;2023-12-07T08:57:53;98208.94;;;7.26;44.71
54554;BME280;40450;55.848;-3.572;2023-12-07T09:00:22;98205.62;;;7.15;45.15
54554;BME280;40450;55.848;-3.572;2023-12-07T09:02:43;98201.65;;;7.16;45.58
54554;BME280;40450;55.848;-3.572;2023-12-07T09:05:09;98193.59;;;6.87;46.08
54554;BME280;40450;55.848;-3.572;2023-12-07T09:07:34;98188.77;;;7.03;46.12
54554;BME280;40450;55.848;-3.572;2023-12-07T09:10:05;98187.20;;;7.07;45.82
54554;BME280;40450;55.848;-3.572;2023-12-07T09:12:29;98184.32;;;6.94;46.06
54554;BME280;40450;55.848;-3.572;2023-12-07T09:14:58;98183.95;;;7.52;45.95
54554;BME280;40450;55.848;-3.572;2023-12-07T09:17:15;98181.70;;;7.62;45.93
54554;BME280;40450;55.848;-3.572;2023-12-07T09:19:40;98176.25;;;6.65;46.04
54554;BME280;40450;55.848;-3.572;2023-12-07T09:22:05;98177.60;;;7.60;46.18
54554;BME280;40450;55.848;-3.572;2023-12-07T09:24:31;98177.37;;;7.13;46.10
54554;BME280;40450;55.848;-3.572;2023-12-07T09:26:56;98181.81;;;6.65;46.56
54554;BME280;40450;55.848;-3.572;2023-12-07T09:29:22;98177.77;;;6.92;47.11
54554;BME280;40450;55.848;-3.572;2023-12-07T09:31:47;98187.81;;;7.24;47.08
54554;BME280;40450;55.848;-3.572;2023-12-07T09:34:18;98185.39;;;7.18;46.86
54554;BME280;40450;55.848;-3.572;2023-12-07T09:36:38;98177.93;;;6.72;47.11
54554;BME280;40450;55.848;-3.572;2023-12-07T09:39:04;98177.10;;;6.21;47.50
54554;BME280;40450;55.848;-3.572;2023-12-07T09:41:29;98166.61;;;7.03;47.61
54554;BME280;40450;55.848;-3.572;2023-12-07T09:44:03;98164.78;;;6.61;47.76
54554;BME280;40450;55.848;-3.572;2023-12-07T09:46:20;98160.57;;;7.14;47.22
54554;BME280;40450;55.848;-3.572;2023-12-07T09:48:51;98159.80;;;7.69;47.07
54554;BME280;40450;55.848;-3.572;2023-12-07T09:51:56;98169.06;;;7.18;47.28
54554;BME280;40450;55.848;-3.572;2023-12-07T09:53:42;98165.00;;;7.38;47.16
54554;BME280;40450;55.848;-3.572;2023-12-07T09:56:07;98166.51;;;7.90;47.10
54554;BME280;40450;55.848;-3.572;2023-12-07T09:58:50;98158.43;;;7.68;46.51
54554;BME280;40450;55.848;-3.572;2023-12-07T10:00:52;98147.19;;;8.08;47.05
54554;BME280;40450;55.848;-3.572;2023-12-07T10:03:22;98140.72;;;8.36;46.41
54554;BME280;40450;55.848;-3.572;2023-12-07T10:06:00;98140.87;;;8.78;46.61
54554;BME280;40450;55.848;-3.572;2023-12-07T10:10:33;98135.59;;;9.06;45.61
54554;BME280;40450;55.848;-3.572;2023-12-07T10:13:04;98134.51;;;8.83;44.84
54554;BME280;40450;55.848;-3.572;2023-12-07T10:15:24;98132.52;;;9.14;44.54
54554;BME280;40450;55.848;-3.572;2023-12-07T10:17:58;98115.30;;;7.99;44.70
54554;BME280;40450;55.848;-3.572;2023-12-07T10:20:16;98099.48;;;8.29;45.06
54554;BME280;40450;55.848;-3.572;2023-12-07T10:22:40;98091.92;;;8.15;44.82
54554;BME280;40450;55.848;-3.572;2023-12-07T10:25:06;98084.19;;;7.91;44.86
54554;BME280;40450;55.848;-3.572;2023-12-07T10:27:31;98075.10;;;7.92;45.11
54554;BME280;40450;55.848;-3.572;2023-12-07T10:29:58;98076.89;;;8.50;45.01
54554;BME280;40450;55.848;-3.572;2023-12-07T10:32:26;98073.55;;;7.86;44.61
54554;BME280;40450;55.848;-3.572;2023-12-07T10:37:14;98059.08;;;7.96;45.60
54554;BME280;40450;55.848;-3.572;2023-12-07T10:39:44;98056.61;;;8.00;45.25
54554;BME280;40450;55.848;-3.572;2023-12-07T10:42:09;98057.92;;;8.08;45.11
54554;BME280;40450;55.848;-3.572;2023-12-07T10:44:37;98061.51;;;7.33;45.16
54554;BME280;40450;55.848;-3.572;2023-12-07T10:46:59;98063.79;;;7.90;45.22
54554;BME280;40450;55.848;-3.572;2023-12-07T10:49:28;98054.08;;;7.80;45.79
54554;BME280;40450;55.848;-3.572;2023-12-07T10:51:54;98051.48;;;7.47;46.14
54554;BME280;40450;55.848;-3.572;2023-12-07T10:54:13;98045.59;;;7.32;46.04
54554;BME280;40450;55.848;-3.572;2023-12-07T10:56:45;98040.96;;;7.78;46.07
54554;BME280;40450;55.848;-3.572;2023-12-07T10:59:06;98034.82;;;7.19;46.09
54554;BME280;40450;55.848;-3.572;2023-12-07T11:01:34;98034.07;;;7.05;46.52
54554;BME280;40450;55.848;-3.572;2023-12-07T11:03:58;98030.57;;;7.24;47.11
54554;BME280;40450;55.848;-3.572;2023-12-07T11:06:17;98020.10;;;6.60;47.61
54554;BME280;40450;55.848;-3.572;2023-12-07T11:08:47;98001.65;;;6.41;48.21
54554;BME280;40450;55.848;-3.572;2023-12-07T11:11:12;97983.68;;;6.78;48.46
54554;BME280;40450;55.848;-3.572;2023-12-07T11:13:36;97987.41;;;6.74;48.71
54554;BME280;40450;55.848;-3.572;2023-12-07T11:15:58;97978.30;;;6.06;49.30
54554;BME280;40450;55.848;-3.572;2023-12-07T11:18:25;97982.14;;;5.73;50.37
54554;BME280;40450;55.848;-3.572;2023-12-07T11:20:54;97983.38;;;5.98;50.57
54554;BME280;40450;55.848;-3.572;2023-12-07T11:23:19;97983.82;;;5.53;51.42
54554;BME280;40450;55.848;-3.572;2023-12-07T11:25:44;97991.66;;;5.44;52.07
54554;BME280;40450;55.848;-3.572;2023-12-07T11:28:12;97978.78;;;5.87;51.95
54554;BME280;40450;55.848;-3.572;2023-12-07T11:30:32;97978.16;;;6.04;52.10
54554;BME280;40450;55.848;-3.572;2023-12-07T11:32:55;97967.85;;;6.21;51.68
54554;BME280;40450;55.848;-3.572;2023-12-07T11:35:20;97966.54;;;5.83;52.05
54554;BME280;40450;55.848;-3.572;2023-12-07T11:38:07;97961.85;;;6.20;52.23
54554;BME280;40450;55.848;-3.572;2023-12-07T11:40:10;97948.85;;;5.94;52.42
54554;BME280;40450;55.848;-3.572;2023-12-07T11:42:35;97943.22;;;5.78;52.91
54554;BME280;40450;55.848;-3.572;2023-12-07T11:45:07;97931.66;;;6.05;52.66
54554;BME280;40450;55.848;-3.572;2023-12-07T11:47:26;97942.27;;;5.42;53.39
54554;BME280;40450;55.848;-3.572;2023-12-07T11:49:52;97936.37;;;5.41;53.58
54554;BME280;40450;55.848;-3.572;2023-12-07T11:52:22;97928.13;;;6.29;52.58
54554;BME280;40450;55.848;-3.572;2023-12-07T11:54:44;97927.09;;;6.30;52.77
54554;BME280;40450;55.848;-3.572;2023-12-07T11:57:13;97919.29;;;6.35;53.02
54554;BME280;40450;55.848;-3.572;2023-12-07T11:59:38;97928.25;;;6.43;52.93
54554;BME280;40450;55.848;-3.572;2023-12-07T12:02:10;97924.21;;;6.25;52.69
54554;BME280;40450;55.848;-3.572;2023-12-07T12:04:28;97933.41;;;6.72;52.44
54554;BME280;40450;55.848;-3.572;2023-12-07T12:06:58;97938.25;;;5.98;53.22
54554;BME280;40450;55.848;-3.572;2023-12-07T12:09:23;97923.17;;;6.88;53.23
54554;BME280;40450;55.848;-3.572;2023-12-07T12:11:44;97910.09;;;6.80;52.84
54554;BME280;40450;55.848;-3.572;2023-12-07T12:14:04;97894.15;;;7.24;52.19
54554;BME280;40450;55.848;-3.572;2023-12-07T12:16:29;97895.00;;;7.22;51.25
54554;BME280;40450;55.848;-3.572;2023-12-07T12:18:55;97886.35;;;7.10;51.15
54554;BME280;40450;55.848;-3.572;2023-12-07T12:21:26;97885.67;;;7.50;50.72
54554;BME280;40450;55.848;-3.572;2023-12-07T12:23:48;97886.07;;;7.32;50.46
54554;BME280;40450;55.848;-3.572;2023-12-07T12:26:10;97886.91;;;7.49;50.55
54554;BME280;40450;55.848;-3.572;2023-12-07T12:28:44;97877.97;;;7.97;50.63
54554;BME280;40450;55.848;-3.572;2023-12-07T12:31:01;97872.50;;;8.12;49.38
54554;BME280;40450;55.848;-3.572;2023-12-07T12:33:26;97867.42;;;8.80;49.13
54554;BME280;40450;55.848;-3.572;2023-12-07T12:36:02;97874.70;;;8.36;48.42
54554;BME280;40450;55.848;-3.572;2023-12-07T12:38:16;97880.62;;;8.07;48.36
54554;BME280;40450;55.848;-3.572;2023-12-07T12:40:42;97870.37;;;8.38;48.77
54554;BME280;40450;55.848;-3.572;2023-12-07T12:43:07;97873.16;;;8.85;48.20
54554;BME280;40450;55.848;-3.572;2023-12-07T12:45:33;97859.86;;;8.53;48.07
54554;BME280;40450;55.848;-3.572;2023-12-07T12:47:57;97853.76;;;8.77;47.68
54554;BME280;40450;55.848;-3.572;2023-12-07T12:50:33;97840.11;;;8.80;47.50
54554;BME280;40450;55.848;-3.572;2023-12-07T12:52:48;97822.34;;;8.50;47.43
54554;BME280;40450;55.848;-3.572;2023-12-07T12:55:13;97813.67;;;8.63;47.61
54554;BME280;40450;55.848;-3.572;2023-12-07T12:57:38;97801.18;;;8.37;47.42
54554;BME280;40450;55.848;-3.572;2023-12-07T13:00:05;97790.57;;;8.59;47.14
54554;BME280;40450;55.848;-3.572;2023-12-07T13:02:28;97786.27;;;8.51;47.20